createdAt,value
2022-08-23T00:01:32.843Z,4.72
2022-08-23T00:04:04.558Z,4.70
2022-08-23T00:06:31.271Z,4.43
2022-08-23T00:08:58.022Z,4.63
2022-08-23T00:11:27.315Z,5.20
2022-08-23T00:13:53.972Z,4.95
2022-08-23T00:16:20.645Z,4.80
2022-08-23T00:18:49.264Z,4.90
2022-08-23T00:21:17.444Z,5.63
2022-08-23T00:23:44.082Z,5.15
2022-08-23T00:26:11.010Z,4.68
2022-08-23T00:28:37.599Z,5.32
2022-08-23T00:31:04.634Z,4.70
2022-08-23T00:33:31.195Z,5.25
2022-08-23T00:35:57.776Z,4.70
2022-08-23T00:38:33.800Z,4.65
2022-08-23T00:41:17.293Z,5.10
2022-08-23T00:43:43.879Z,5.20
2022-08-23T00:46:22.866Z,4.68
2022-08-23T00:48:50.513Z,4.93
2022-08-23T00:51:20.641Z,5.75
2022-08-23T00:53:53.337Z,5.05
2022-08-23T00:56:23.273Z,5.10
2022-08-23T00:58:50.372Z,4.93
2022-08-23T01:01:18.149Z,5.13
2022-08-23T01:03:49.636Z,5.10
2022-08-23T01:06:27.246Z,4.90
2022-08-23T01:09:00.127Z,5.20
2022-08-23T01:11:30.412Z,5.40
2022-08-23T01:14:03.797Z,4.93
2022-08-23T01:16:41.734Z,5.40
2022-08-23T01:19:16.430Z,5.30
2022-08-23T01:21:49.136Z,4.68
2022-08-23T01:24:19.203Z,5.28
2022-08-23T01:27:04.720Z,5.22
2022-08-23T01:29:31.333Z,5.40
2022-08-23T01:31:57.966Z,5.30
2022-08-23T01:34:26.968Z,4.90
2022-08-23T01:36:56.494Z,5.20
2022-08-23T01:39:24.957Z,5.40
2022-08-23T01:41:51.521Z,5.50
2022-08-23T01:44:18.880Z,5.28
2022-08-23T01:46:46.849Z,5.13
2022-08-23T01:49:14.230Z,5.18
2022-08-23T01:51:40.821Z,5.55
2022-08-23T01:54:07.461Z,5.18
2022-08-23T01:56:38.631Z,5.32
2022-08-23T02:01:33.447Z,5.50
2022-08-23T02:04:04.196Z,5.30
2022-08-23T02:06:32.340Z,5.32
2022-08-23T02:08:59.013Z,5.80
2022-08-23T02:11:26.804Z,5.40
2022-08-23T02:13:58.246Z,6.03
2022-08-23T02:16:27.487Z,5.93
2022-08-23T02:18:55.621Z,6.03
2022-08-23T02:21:22.555Z,5.90
2022-08-23T02:23:49.956Z,6.20
2022-08-23T02:26:16.531Z,6.05
2022-08-23T02:28:43.116Z,6.35
2022-08-23T02:31:11.347Z,5.22
2022-08-23T02:38:54.968Z,5.72
2022-08-23T02:41:22.034Z,5.97
2022-08-23T02:43:51.944Z,5.57
2022-08-23T02:46:20.671Z,6.18
2022-08-23T02:48:48.234Z,5.63
2022-08-23T02:51:16.847Z,5.78
2022-08-23T02:53:43.660Z,6.85
2022-08-23T02:56:21.133Z,5.68
2022-08-23T02:58:48.491Z,6.85
2022-08-23T03:01:26.426Z,6.63
2022-08-23T03:03:53.164Z,6.38
2022-08-23T03:06:25.312Z,5.70
2022-08-23T03:08:52.976Z,6.20
2022-08-23T03:11:21.221Z,6.13
2022-08-23T03:13:48.650Z,5.75
2022-08-23T03:16:16.203Z,5.85
2022-08-23T03:18:44.638Z,6.05
2022-08-23T03:21:11.637Z,6.60
2022-08-23T03:23:39.416Z,7.32
2022-08-23T03:26:08.157Z,6.35
2022-08-23T03:28:36.866Z,6.18
2022-08-23T03:31:04.134Z,5.90
2022-08-23T03:33:30.694Z,6.80
2022-08-23T03:35:59.654Z,6.68
2022-08-23T03:38:26.237Z,6.10
2022-08-23T03:40:52.808Z,6.30
2022-08-23T03:43:19.455Z,6.13
2022-08-23T03:45:46.981Z,6.50
2022-08-23T03:48:13.550Z,6.75
2022-08-23T03:50:40.259Z,6.53
2022-08-23T03:53:09.086Z,7.10
2022-08-23T03:58:09.894Z,6.18
2022-08-23T04:00:37.004Z,6.18
2022-08-23T04:03:04.150Z,6.63
2022-08-23T04:05:30.723Z,6.90
2022-08-23T04:07:57.368Z,7.03
2022-08-23T04:10:25.544Z,6.80
2022-08-23T04:12:52.336Z,6.65
2022-08-23T04:15:19.111Z,6.85
2022-08-23T04:17:45.754Z,7.20
2022-08-23T04:20:12.445Z,6.68
2022-08-23T04:22:39.030Z,7.45
2022-08-23T04:25:32.900Z,6.43
2022-08-23T04:27:54.341Z,7.05
2022-08-23T04:30:20.892Z,6.80
2022-08-23T04:32:47.663Z,6.40
2022-08-23T04:35:14.604Z,6.53
2022-08-23T04:37:41.235Z,6.38
2022-08-23T04:40:09.584Z,6.78
2022-08-23T04:42:36.219Z,6.68
2022-08-23T04:45:04.570Z,6.60
2022-08-23T04:47:31.135Z,6.68
2022-08-23T04:49:57.710Z,7.30
2022-08-23T04:52:24.333Z,6.75
2022-08-23T04:54:50.888Z,7.10
2022-08-23T04:57:17.451Z,7.43
2022-08-23T04:59:43.995Z,7.00
2022-08-23T05:02:11.926Z,7.28
2022-08-23T05:04:38.473Z,6.95
2022-08-23T05:07:05.185Z,6.38
2022-08-23T05:09:31.746Z,7.25
2022-08-23T05:11:58.338Z,6.55
2022-08-23T05:14:25.002Z,8.40
2022-08-23T05:16:51.571Z,6.95
2022-08-23T05:19:19.462Z,6.63
2022-08-23T05:21:46.118Z,6.95
2022-08-23T05:24:13.535Z,7.18
2022-08-23T05:26:40.617Z,7.22
2022-08-23T05:29:07.171Z,7.07
2022-08-23T05:31:33.733Z,6.65
2022-08-23T05:34:00.321Z,6.80
2022-08-23T05:36:28.271Z,6.55
2022-08-23T05:38:54.831Z,6.78
2022-08-23T05:41:21.693Z,6.47
2022-08-23T05:43:53.731Z,6.35
2022-08-23T05:46:22.057Z,6.22
2022-08-23T05:48:54.834Z,6.30
2022-08-23T05:51:23.537Z,6.68
2022-08-23T05:53:53.303Z,6.50
2022-08-23T05:56:21.958Z,6.30
2022-08-23T05:58:49.898Z,5.90
2022-08-23T06:01:17.719Z,5.78
2022-08-23T06:03:44.445Z,5.53
2022-08-23T06:06:12.038Z,5.40
2022-08-23T06:08:39.068Z,5.60
2022-08-23T06:11:10.534Z,6.00
2022-08-23T06:13:40.169Z,5.10
2022-08-23T06:16:14.510Z,5.68
2022-08-23T06:18:42.092Z,6.28
2022-08-23T06:21:10.630Z,6.45
2022-08-23T06:23:37.859Z,5.90
2022-08-23T06:26:11.364Z,6.40
2022-08-23T06:28:50.792Z,7.10
2022-08-23T06:31:19.394Z,7.13
2022-08-23T06:33:45.996Z,7.32
2022-08-23T06:36:13.648Z,7.60
2022-08-23T06:38:40.769Z,7.28
2022-08-23T06:41:11.534Z,7.80
2022-08-23T06:43:39.143Z,7.63
2022-08-23T06:46:11.820Z,7.13
2022-08-23T06:48:38.580Z,6.90
2022-08-23T06:51:11.370Z,6.85
2022-08-23T06:53:37.931Z,7.10
2022-08-23T06:56:06.692Z,7.25
2022-08-23T06:58:34.823Z,6.78
2022-08-23T07:01:35.103Z,6.70
2022-08-23T07:03:59.912Z,7.55
2022-08-23T07:06:27.610Z,8.13
2022-08-23T07:08:54.889Z,8.38
2022-08-23T07:11:22.390Z,8.57
2022-08-23T07:13:50.290Z,8.40
2022-08-23T07:16:17.025Z,8.88
2022-08-23T07:18:43.959Z,8.07
2022-08-23T07:21:10.551Z,8.23
2022-08-23T07:23:37.086Z,8.52
2022-08-23T07:26:07.679Z,8.23
2022-08-23T07:28:34.255Z,8.13
2022-08-23T07:31:12.388Z,7.90
2022-08-23T07:33:44.618Z,7.95
2022-08-23T07:36:14.316Z,7.50
2022-08-23T07:38:40.851Z,6.57
2022-08-23T07:41:07.420Z,5.90
2022-08-23T07:43:34.642Z,6.57
2022-08-23T07:46:04.286Z,7.82
2022-08-23T07:48:52.931Z,6.00
2022-08-23T07:51:20.009Z,6.50
2022-08-23T07:53:47.729Z,7.57
2022-08-23T07:56:16.935Z,7.57
2022-08-23T07:58:43.637Z,6.93
2022-08-23T08:01:12.703Z,6.70
2022-08-23T08:03:40.621Z,6.88
2022-08-23T08:06:09.169Z,6.70
2022-08-23T08:08:35.797Z,4.60
2022-08-23T08:11:02.373Z,4.65
2022-08-23T08:13:29.314Z,4.90
2022-08-23T08:15:55.904Z,4.97
2022-08-23T08:18:22.479Z,5.18
2022-08-23T08:20:50.406Z,4.63
2022-08-23T08:23:17.021Z,5.20
2022-08-23T08:25:43.688Z,5.25
2022-08-23T08:28:15.609Z,4.55
2022-08-23T08:30:42.647Z,5.18
2022-08-23T08:33:09.419Z,4.88
2022-08-23T08:35:35.974Z,4.70
2022-08-23T08:38:04.114Z,4.13
2022-08-23T08:40:37.568Z,4.63
2022-08-23T08:43:23.633Z,4.78
2022-08-23T08:46:06.075Z,4.57
2022-08-23T08:48:41.545Z,4.57
2022-08-23T08:51:19.657Z,4.72
2022-08-23T08:53:49.395Z,4.50
2022-08-23T08:56:19.991Z,4.45
2022-08-23T08:58:50.707Z,4.00
2022-08-23T09:01:17.444Z,4.70
2022-08-23T09:03:46.332Z,3.38
2022-08-23T09:06:19.215Z,3.47
2022-08-23T09:09:02.128Z,2.90
2022-08-23T09:11:41.227Z,2.97
2022-08-23T09:14:25.132Z,2.28
2022-08-23T09:16:53.691Z,1.73
2022-08-23T09:19:22.769Z,2.15
2022-08-23T09:21:57.492Z,2.20
2022-08-23T09:24:26.532Z,2.40
2022-08-23T09:26:53.331Z,2.42
2022-08-23T09:29:23.668Z,2.25
2022-08-23T09:31:52.439Z,2.00
2022-08-23T09:34:21.623Z,2.20
2022-08-23T09:36:48.540Z,1.92
2022-08-23T09:39:30.517Z,1.70
2022-08-23T09:41:58.582Z,1.75
2022-08-23T09:44:35.251Z,1.70
2022-08-23T09:47:09.117Z,1.80
2022-08-23T09:49:36.290Z,2.03
2022-08-23T09:52:16.085Z,2.20
2022-08-23T09:54:57.077Z,1.80
2022-08-23T09:57:26.372Z,2.08
2022-08-23T09:59:53.369Z,1.80
2022-08-23T10:02:27.226Z,2.20
2022-08-23T10:05:00.854Z,2.53
2022-08-23T10:07:34.410Z,1.88
2022-08-23T10:10:19.111Z,1.70
2022-08-23T10:12:46.575Z,1.80
2022-08-23T10:15:14.065Z,1.63
2022-08-23T10:17:50.675Z,1.58
2022-08-23T10:20:27.732Z,1.80
2022-08-23T10:23:06.159Z,1.70
2022-08-23T10:25:40.069Z,1.80
2022-08-23T10:28:15.468Z,1.98
2022-08-23T10:30:50.932Z,2.15
2022-08-23T10:33:22.419Z,1.92
2022-08-23T10:35:56.562Z,1.60
2022-08-23T10:38:39.794Z,1.95
2022-08-23T10:41:30.148Z,1.80
2022-08-23T10:44:06.107Z,2.03
2022-08-23T10:46:39.698Z,2.00
2022-08-23T10:49:06.855Z,1.83
2022-08-23T10:51:40.524Z,1.58
2022-08-23T10:54:13.286Z,1.30
2022-08-23T10:56:50.774Z,1.20
2022-08-23T10:59:21.082Z,1.40
2022-08-23T11:01:53.294Z,1.40
2022-08-23T11:04:28.526Z,1.70
2022-08-23T11:06:57.626Z,1.90
2022-08-23T11:09:50.282Z,1.98
2022-08-23T11:12:33.333Z,1.80
2022-08-23T11:15:18.159Z,1.85
2022-08-23T11:18:00.574Z,1.83
2022-08-23T11:21:04.332Z,2.38
2022-08-23T11:23:52.592Z,1.98
2022-08-23T11:27:05.833Z,1.80
2022-08-23T11:29:40.078Z,1.70
2022-08-23T11:32:25.939Z,1.40
2022-08-23T11:35:06.314Z,1.65
2022-08-23T11:38:03.939Z,2.00
2022-08-23T11:41:00.214Z,1.77
2022-08-23T11:43:31.548Z,1.73
2022-08-23T11:46:30.670Z,1.88
2022-08-23T11:49:15.497Z,1.77
2022-08-23T11:51:50.012Z,1.80
2022-08-23T11:54:31.947Z,1.80
2022-08-23T11:57:07.542Z,1.70
2022-08-23T11:59:58.105Z,1.70
2022-08-23T12:02:39.562Z,1.92
2022-08-23T12:05:22.895Z,1.50
2022-08-23T12:07:54.513Z,1.33
2022-08-23T12:13:30.972Z,1.77
2022-08-23T12:16:25.284Z,1.45
2022-08-23T12:18:59.921Z,1.60
2022-08-23T12:21:33.611Z,1.70
2022-08-23T12:24:12.496Z,1.60
2022-08-23T12:26:46.742Z,1.90
2022-08-23T12:29:24.516Z,1.55
2022-08-23T12:31:58.564Z,1.80
2022-08-23T12:34:32.931Z,1.55
2022-08-23T12:37:09.357Z,1.48
2022-08-23T12:39:38.699Z,1.95
2022-08-23T12:42:09.595Z,2.00
2022-08-23T12:44:37.537Z,1.90
2022-08-23T12:47:14.229Z,1.60
2022-08-23T12:49:40.934Z,1.77
2022-08-23T12:52:10.915Z,1.70
2022-08-23T12:54:40.173Z,1.80
2022-08-23T12:57:08.131Z,1.80
2022-08-23T12:59:40.379Z,2.15
2022-08-23T13:02:11.097Z,1.55
2022-08-23T13:04:39.610Z,1.83
2022-08-23T13:07:10.045Z,1.90
2022-08-23T13:09:40.541Z,1.80
2022-08-23T13:12:08.735Z,1.85
2022-08-23T13:14:43.699Z,1.98
2022-08-23T13:17:20.387Z,2.13
2022-08-23T13:19:48.757Z,1.60
2022-08-23T13:22:22.951Z,1.73
2022-08-23T13:25:26.790Z,2.20
2022-08-23T13:27:52.884Z,1.90
2022-08-23T13:30:23.765Z,2.20
2022-08-23T13:32:52.276Z,2.10
2022-08-23T13:35:40.841Z,1.98
2022-08-23T13:38:21.460Z,1.60
2022-08-23T13:40:59.093Z,2.10
2022-08-23T13:43:29.643Z,1.73
2022-08-23T13:46:00.149Z,1.75
2022-08-23T13:48:30.382Z,1.70
2022-08-23T13:51:24.865Z,1.88
2022-08-23T13:53:52.108Z,1.90
2022-08-23T13:56:18.726Z,1.60
2022-08-23T13:58:54.043Z,1.92
2022-08-23T14:01:22.307Z,1.67
2022-08-23T14:03:48.902Z,1.45
2022-08-23T14:06:15.676Z,1.60
2022-08-23T14:08:42.449Z,1.73
2022-08-23T14:11:10.314Z,2.10
2022-08-23T14:13:38.190Z,1.60
2022-08-23T14:21:42.663Z,1.83
2022-08-23T14:24:09.211Z,1.90
2022-08-23T14:26:35.769Z,1.92
2022-08-23T14:29:02.314Z,1.83
2022-08-23T14:31:28.891Z,1.80
2022-08-23T14:34:02.013Z,1.75
2022-08-23T14:36:30.087Z,1.95
2022-08-23T14:38:56.719Z,2.08
2022-08-23T14:41:26.591Z,1.80
2022-08-23T14:43:53.239Z,1.90
2022-08-23T14:46:20.311Z,2.10
2022-08-23T14:48:47.320Z,1.52
2022-08-23T14:51:25.101Z,1.73
2022-08-23T14:53:52.259Z,1.67
2022-08-23T14:56:21.709Z,1.60
2022-08-23T14:58:49.101Z,1.77
2022-08-23T15:01:16.539Z,1.77
2022-08-23T15:03:43.238Z,1.70
2022-08-23T15:06:10.984Z,1.50
2022-08-23T15:08:39.820Z,1.60
2022-08-23T15:13:55.229Z,1.60
2022-08-23T15:16:23.192Z,1.35
2022-08-23T15:18:51.949Z,1.40
2022-08-23T15:21:19.467Z,1.70
2022-08-23T15:23:48.026Z,1.85
2022-08-23T15:26:16.693Z,1.70
2022-08-23T15:28:43.333Z,2.40
2022-08-23T15:31:09.969Z,4.35
2022-08-23T15:33:36.574Z,4.53
2022-08-23T15:36:05.665Z,2.28
2022-08-23T15:38:32.244Z,5.05
2022-08-23T15:41:00.550Z,2.33
2022-08-23T15:43:34.481Z,5.10
2022-08-23T15:46:04.881Z,4.78
2022-08-23T15:48:36.126Z,3.35
2022-08-23T15:51:05.129Z,2.40
2022-08-23T15:53:31.871Z,1.92
2022-08-23T15:56:05.472Z,3.75
2022-08-23T15:58:32.371Z,2.75
2022-08-23T16:00:58.968Z,3.40
2022-08-23T16:03:25.696Z,3.13
2022-08-23T16:05:53.513Z,2.92
2022-08-23T16:08:24.082Z,3.50
2022-08-23T16:10:50.687Z,2.70
2022-08-23T16:13:18.643Z,2.65
2022-08-23T16:15:45.428Z,2.80
2022-08-23T16:18:12.679Z,3.03
2022-08-23T16:20:39.641Z,3.78
2022-08-23T16:23:06.890Z,2.45
2022-08-23T16:25:33.654Z,2.22
2022-08-23T16:28:00.747Z,2.88
2022-08-23T16:30:28.953Z,2.83
2022-08-23T16:32:55.809Z,2.92
2022-08-23T16:35:22.510Z,2.70
2022-08-23T16:37:49.136Z,2.47
2022-08-23T16:40:16.747Z,3.00
2022-08-23T16:42:43.738Z,2.83
2022-08-23T16:45:11.227Z,2.72
2022-08-23T16:47:42.007Z,2.97
2022-08-23T16:50:12.762Z,2.63
2022-08-23T16:52:39.418Z,2.40
2022-08-23T16:55:09.632Z,3.15
2022-08-23T16:57:36.561Z,3.17
2022-08-23T17:00:06.921Z,3.10
2022-08-23T17:02:36.702Z,3.00
2022-08-23T17:05:05.994Z,2.60
2022-08-23T17:07:32.611Z,2.95
2022-08-23T17:09:59.219Z,2.83
2022-08-23T17:12:25.847Z,2.80
2022-08-23T17:14:52.413Z,2.70
2022-08-23T17:17:18.965Z,2.90
2022-08-23T17:19:45.507Z,2.97
2022-08-23T17:22:13.499Z,2.97
2022-08-23T17:24:40.052Z,2.97
2022-08-23T17:27:06.952Z,2.92
2022-08-23T17:29:37.286Z,2.97
2022-08-23T17:32:04.198Z,2.88
2022-08-23T17:34:30.820Z,2.88
2022-08-23T17:36:57.581Z,3.08
2022-08-23T17:39:28.450Z,2.92
2022-08-23T17:41:55.238Z,2.50
2022-08-23T17:44:22.083Z,2.80
2022-08-23T17:46:49.554Z,3.00
2022-08-23T17:49:17.288Z,3.38
2022-08-23T17:51:44.678Z,2.88
2022-08-23T17:54:11.637Z,2.70
2022-08-23T17:59:17.585Z,2.83
2022-08-23T18:01:44.144Z,2.83
2022-08-23T18:04:10.688Z,2.63
2022-08-23T18:06:37.352Z,2.65
2022-08-23T18:09:05.255Z,3.25
2022-08-23T18:11:31.960Z,2.85
2022-08-23T18:13:59.846Z,3.75
2022-08-23T18:16:26.925Z,3.25
2022-08-23T18:18:53.530Z,3.20
2022-08-23T18:21:20.249Z,2.92
2022-08-23T18:23:46.791Z,3.22
2022-08-23T18:26:13.820Z,3.13
2022-08-23T18:28:41.219Z,3.30
2022-08-23T18:31:09.147Z,2.90
2022-08-23T18:33:46.514Z,3.05
2022-08-23T18:36:14.003Z,3.20
2022-08-23T18:38:40.572Z,3.10
2022-08-23T18:41:07.280Z,3.25
2022-08-23T18:43:37.203Z,3.08
2022-08-23T18:46:05.231Z,3.55
2022-08-23T18:48:33.777Z,3.88
2022-08-23T18:51:00.989Z,3.60
2022-08-23T18:53:28.550Z,3.70
2022-08-23T18:55:55.177Z,3.15
2022-08-23T18:58:22.898Z,3.50
2022-08-23T19:00:51.012Z,3.40
2022-08-23T19:03:17.835Z,4.07
2022-08-23T19:05:45.901Z,3.88
2022-08-23T19:08:13.460Z,3.58
2022-08-23T19:10:42.144Z,4.07
2022-08-23T19:13:09.917Z,4.68
2022-08-23T19:15:37.318Z,3.92
2022-08-23T19:18:04.652Z,4.03
2022-08-23T19:20:31.214Z,4.00
2022-08-23T19:22:59.506Z,4.63
2022-08-23T19:25:26.553Z,4.03
2022-08-23T19:27:53.156Z,3.67
2022-08-23T19:30:19.712Z,3.88
2022-08-23T19:32:46.679Z,3.60
2022-08-23T19:35:13.255Z,4.10
2022-08-23T19:37:39.822Z,3.58
2022-08-23T19:40:09.140Z,3.75
2022-08-23T19:42:35.830Z,3.92
2022-08-23T19:45:02.608Z,3.92
2022-08-23T19:47:29.168Z,4.22
2022-08-23T19:49:58.666Z,4.47
2022-08-23T19:52:26.118Z,4.78
2022-08-23T19:54:52.660Z,4.32
2022-08-23T19:57:20.589Z,3.90
2022-08-23T19:59:47.156Z,4.30
2022-08-23T20:02:13.895Z,4.53
2022-08-23T20:04:40.572Z,5.00
2022-08-23T20:07:07.132Z,4.65
2022-08-23T20:09:34.518Z,4.63
2022-08-23T20:12:01.722Z,3.63
2022-08-23T20:14:30.801Z,4.55
2022-08-23T20:16:57.381Z,4.10
2022-08-23T20:19:23.925Z,4.78
2022-08-23T20:21:50.709Z,4.55
2022-08-23T20:24:25.459Z,4.10
2022-08-23T20:26:59.253Z,4.07
2022-08-23T20:29:25.784Z,4.40
2022-08-23T20:31:55.712Z,4.47
2022-08-23T20:34:23.427Z,4.00
2022-08-23T20:36:53.763Z,4.80
2022-08-23T20:39:23.743Z,4.90
2022-08-23T20:41:52.260Z,4.00
2022-08-23T20:44:19.758Z,4.22
2022-08-23T20:46:48.672Z,4.82
2022-08-23T20:49:18.890Z,4.68
2022-08-23T20:51:45.699Z,4.38
2022-08-23T20:54:12.358Z,4.00
2022-08-23T20:56:39.320Z,4.15
2022-08-23T20:59:07.607Z,4.40
2022-08-23T21:01:34.789Z,4.70
2022-08-23T21:04:01.759Z,4.35
2022-08-23T21:06:35.952Z,4.45
2022-08-23T21:09:02.510Z,5.00
2022-08-23T21:11:29.067Z,4.75
2022-08-23T21:13:57.278Z,4.82
2022-08-23T21:16:24.891Z,4.07
2022-08-23T21:18:51.569Z,4.78
2022-08-23T21:21:21.756Z,5.13
2022-08-23T21:23:50.198Z,4.28
2022-08-23T21:26:16.845Z,4.63
2022-08-23T21:28:43.496Z,5.68
2022-08-23T21:31:12.717Z,4.88
2022-08-23T21:33:40.434Z,4.53
2022-08-23T21:36:07.655Z,4.18
2022-08-23T21:38:34.806Z,4.43
2022-08-23T21:41:09.401Z,4.68
2022-08-23T21:43:37.329Z,4.75
2022-08-23T21:46:04.638Z,4.03
2022-08-23T21:48:31.424Z,4.68
2022-08-23T21:50:58.140Z,4.32
2022-08-23T21:53:24.883Z,4.75
2022-08-23T21:55:51.686Z,4.38
2022-08-23T21:58:20.926Z,4.50
2022-08-23T22:00:47.588Z,4.03
2022-08-23T22:03:14.276Z,5.03
2022-08-23T22:05:41.401Z,4.85
2022-08-23T22:08:08.175Z,4.38
2022-08-23T22:10:36.079Z,4.53
2022-08-23T22:13:02.827Z,4.85
2022-08-23T22:15:31.040Z,4.70
2022-08-23T22:17:57.625Z,5.28
2022-08-23T22:20:24.346Z,4.78
2022-08-23T22:22:50.879Z,4.88
2022-08-23T22:25:17.477Z,4.60
2022-08-23T22:27:44.050Z,5.13
2022-08-23T22:30:11.436Z,6.20
2022-08-23T22:32:40.048Z,4.90
2022-08-23T22:35:07.729Z,4.57
2022-08-23T22:37:34.895Z,5.53
2022-08-23T22:40:01.712Z,5.00
2022-08-23T22:42:28.278Z,4.85
2022-08-23T22:44:55.547Z,5.30
2022-08-23T22:47:22.092Z,4.72
2022-08-23T22:49:49.990Z,4.53
2022-08-23T22:52:16.536Z,4.88
2022-08-23T22:54:43.339Z,5.05
2022-08-23T22:57:09.953Z,5.25
2022-08-23T22:59:36.711Z,5.18
2022-08-23T23:02:04.347Z,4.60
2022-08-23T23:04:32.065Z,5.75
2022-08-23T23:07:00.738Z,5.50
2022-08-23T23:09:27.535Z,5.05
2022-08-23T23:11:54.877Z,5.10
2022-08-23T23:14:22.059Z,5.53
2022-08-23T23:16:49.663Z,5.32
2022-08-23T23:19:17.396Z,5.60
2022-08-23T23:21:46.532Z,5.25
2022-08-23T23:24:17.251Z,5.05
2022-08-23T23:26:47.775Z,5.18
2022-08-23T23:29:14.745Z,5.38
2022-08-23T23:31:41.305Z,5.18
2022-08-23T23:34:08.028Z,5.60
2022-08-23T23:36:34.604Z,6.03
2022-08-23T23:39:01.672Z,5.45
2022-08-23T23:41:29.634Z,5.70
2022-08-23T23:43:56.181Z,6.10
2022-08-23T23:46:23.704Z,5.82
2022-08-23T23:48:51.329Z,5.25
2022-08-23T23:51:20.640Z,5.20
2022-08-23T23:53:47.568Z,5.93
2022-08-23T23:56:16.081Z,5.63
2022-08-23T23:58:44.860Z,5.60
